Storm Events Database

Event Details

Event Hail
Magnitude 1.50 in.
State NEBRASKA
County/Area DEUEL
WFO LBF
Report Source Public
NCDC Data Source CSV
Begin Date 2011-08-09 19:30:00.0 MST-7
Begin Location 4W BIG SPGS
Begin Lat/Lon 41.06/-102.15
End Date 2011-08-09 19:30:00.0 MST-7
Deaths Direct/Indirect 0/0 (fatality details below, when available...)
Injuries Direct/Indirect 0/0
Property Damage 0.00K
Crop Damage 0.00K
Episode Narrative Thunderstorms developed over western Nebraska in the late morning and early afternoon hours on Tuesday, August 9th on the north side of a stationary surface front. Several storms became severe and produced very large hail up to baseball size as they moved southeast across southwest Nebraska. One of these storms produced several funnel clouds over Keith and Lincoln counties. More storms developed into the overnight hours which brought more large hail and damaging winds to the southern Nebraska panhandle and far southwest Nebraska.
Event Narrative


     ‚Äč



All events for this episode:

Location County/Zone St. Date Time T.Z. Type Mag Dth Inj PrD CrD
Totals: 0 0 28.75K 1.750M
ARTHUR ARTHUR CO. NE 08/09/2011 11:57 MST-7 Hail 1.75 in. 0 0 0.00K 200.00K
SARBEN KEITH CO. NE 08/09/2011 12:36 MST-7 Hail 2.50 in. 0 0 0.00K 800.00K
ARTHUR ARTHUR CO. NE 08/09/2011 12:37 MST-7 Hail 1.00 in. 0 0 0.00K 750.00K
SARBEN KEITH CO. NE 08/09/2011 12:38 MST-7 Funnel Cloud 0 0 0.00K 0.00K
GRAINTON PERKINS CO. NE 08/09/2011 13:01 MST-7 Hail 1.75 in. 0 0 0.75K 0.00K
CHAPPELL DEUEL CO. NE 08/09/2011 13:55 MST-7 Hail 1.00 in. 0 0 0.00K 0.00K
SUTHERLAND LINCOLN CO. NE 08/09/2011 13:55 CST-6 Hail 1.75 in. 0 0 3.00K 0.00K
CHAPPELL DEUEL CO. NE 08/09/2011 14:00 MST-7 Hail 1.00 in. 0 0 0.00K 0.00K
WALLACE LINCOLN CO. NE 08/09/2011 14:10 CST-6 Funnel Cloud 0 0 0.00K 0.00K
WALLACE LINCOLN CO. NE 08/09/2011 14:32 CST-6 Hail 2.75 in. 0 0 25.00K 0.00K
HAYES CENTER HAYES CO. NE 08/09/2011 14:35 CST-6 Hail 2.75 in. 0 0 0.00K 0.00K
VENANGO PERKINS CO. NE 08/09/2011 14:47 MST-7 Hail 1.75 in. 0 0 0.00K 0.00K
HAYES CENTER HAYES CO. NE 08/09/2011 14:56 CST-6 Hail 1.50 in. 0 0 0.00K 0.00K
LAMAR CHASE CO. NE 08/09/2011 15:11 MST-7 Hail 1.75 in. 0 0 0.00K 0.00K
IMPERIAL CHASE CO. NE 08/09/2011 15:25 MST-7 Hail 1.75 in. 0 0 0.00K 0.00K
ENDERS RES CHASE CO. NE 08/09/2011 15:45 MST-7 Hail 1.50 in. 0 0 0.00K 0.00K
GRANT PERKINS CO. NE 08/09/2011 16:08 MST-7 Hail 1.25 in. 0 0 0.00K 0.00K
ELSIE PERKINS CO. NE 08/09/2011 16:41 MST-7 Hail 1.00 in. 0 0 0.00K 0.00K
GRANT PERKINS CO. NE 08/09/2011 17:00 MST-7 Hail 1.75 in. 0 0 0.00K 0.00K
(IML)IMPERIAL ARPT CHASE CO. NE 08/09/2011 17:22 MST-7 Hail 1.75 in. 0 0 0.00K 0.00K
WAUNETA CHASE CO. NE 08/09/2011 17:29 MST-7 Hail 1.75 in. 0 0 0.00K 0.00K
HAYES CENTER HAYES CO. NE 08/09/2011 18:28 CST-6 Hail 1.75 in. 0 0 0.00K 0.00K
BIG SPGS DEUEL CO. NE 08/09/2011 19:30 MST-7 Hail 1.50 in. 0 0 0.00K 0.00K
LAMAR CHASE CO. NE 08/09/2011 19:30 MST-7 Hail 1.25 in. 0 0 0.00K 0.00K
CHAPPELL DEUEL CO. NE 08/09/2011 21:12 MST-7 Hail 1.75 in. 0 0 0.00K 0.00K
CHAPPELL DEUEL CO. NE 08/09/2011 21:12 MST-7 Thunderstorm Wind 52 kts. EG 0 0 0.00K 0.00K
Totals: 0 0 28.75K 1.750M